sensor_id;sensor_type;location;lat;lon;timestamp;P1;durP1;ratioP1;P2;durP2;ratioP2
39426;SDS011;25938;48.470;1.486;2022-11-12T00:00:49;11.88;;;9.50;;
39426;SDS011;25938;48.470;1.486;2022-11-12T00:03:15;13.80;;;9.73;;
39426;SDS011;25938;48.470;1.486;2022-11-12T00:05:42;12.57;;;9.02;;
39426;SDS011;25938;48.470;1.486;2022-11-12T00:08:08;11.05;;;9.52;;
39426;SDS011;25938;48.470;1.486;2022-11-12T00:10:34;10.65;;;9.10;;
39426;SDS011;25938;48.470;1.486;2022-11-12T00:13:01;13.50;;;9.52;;
39426;SDS011;25938;48.470;1.486;2022-11-12T00:15:27;10.85;;;8.75;;
39426;SDS011;25938;48.470;1.486;2022-11-12T00:17:53;13.73;;;9.25;;
39426;SDS011;25938;48.470;1.486;2022-11-12T00:20:19;12.55;;;9.10;;
39426;SDS011;25938;48.470;1.486;2022-11-12T00:22:45;11.27;;;9.05;;
39426;SDS011;25938;48.470;1.486;2022-11-12T00:25:11;11.90;;;9.13;;
39426;SDS011;25938;48.470;1.486;2022-11-12T00:27:38;13.38;;;9.60;;
39426;SDS011;25938;48.470;1.486;2022-11-12T00:30:04;13.25;;;9.52;;
39426;SDS011;25938;48.470;1.486;2022-11-12T00:32:30;15.68;;;10.40;;
39426;SDS011;25938;48.470;1.486;2022-11-12T00:34:56;11.25;;;9.38;;
39426;SDS011;25938;48.470;1.486;2022-11-12T00:37:22;11.02;;;9.48;;
39426;SDS011;25938;48.470;1.486;2022-11-12T00:39:49;14.60;;;9.77;;
39426;SDS011;25938;48.470;1.486;2022-11-12T00:42:15;14.38;;;10.48;;
39426;SDS011;25938;48.470;1.486;2022-11-12T00:44:41;9.07;;;7.53;;
39426;SDS011;25938;48.470;1.486;2022-11-12T00:47:07;11.80;;;9.30;;
39426;SDS011;25938;48.470;1.486;2022-11-12T00:49:33;13.75;;;8.88;;
39426;SDS011;25938;48.470;1.486;2022-11-12T00:51:59;8.05;;;7.25;;
39426;SDS011;25938;48.470;1.486;2022-11-12T00:54:25;12.45;;;9.30;;
39426;SDS011;25938;48.470;1.486;2022-11-12T00:56:51;11.30;;;8.93;;
39426;SDS011;25938;48.470;1.486;2022-11-12T00:59:17;12.30;;;8.77;;
39426;SDS011;25938;48.470;1.486;2022-11-12T01:01:43;12.50;;;8.55;;
39426;SDS011;25938;48.470;1.486;2022-11-12T01:04:09;11.93;;;8.57;;
39426;SDS011;25938;48.470;1.486;2022-11-12T01:06:37;11.48;;;9.38;;
39426;SDS011;25938;48.470;1.486;2022-11-12T01:09:04;13.75;;;9.80;;
39426;SDS011;25938;48.470;1.486;2022-11-12T01:11:30;12.55;;;9.35;;
39426;SDS011;25938;48.470;1.486;2022-11-12T01:14:00;13.63;;;10.40;;
39426;SDS011;25938;48.470;1.486;2022-11-12T01:16:28;12.70;;;9.60;;
39426;SDS011;25938;48.470;1.486;2022-11-12T01:18:55;14.60;;;10.60;;
39426;SDS011;25938;48.470;1.486;2022-11-12T01:21:23;14.35;;;9.98;;
39426;SDS011;25938;48.470;1.486;2022-11-12T01:23:49;13.20;;;10.68;;
39426;SDS011;25938;48.470;1.486;2022-11-12T01:26:16;12.82;;;9.45;;
39426;SDS011;25938;48.470;1.486;2022-11-12T01:28:43;10.60;;;8.57;;
39426;SDS011;25938;48.470;1.486;2022-11-12T01:31:10;11.52;;;8.65;;
39426;SDS011;25938;48.470;1.486;2022-11-12T01:33:36;9.25;;;8.07;;
39426;SDS011;25938;48.470;1.486;2022-11-12T01:36:03;11.02;;;8.25;;
39426;SDS011;25938;48.470;1.486;2022-11-12T01:38:32;8.98;;;7.57;;
39426;SDS011;25938;48.470;1.486;2022-11-12T01:40:58;14.05;;;9.18;;
39426;SDS011;25938;48.470;1.486;2022-11-12T01:43:24;14.63;;;9.35;;
39426;SDS011;25938;48.470;1.486;2022-11-12T01:45:50;12.60;;;7.70;;
39426;SDS011;25938;48.470;1.486;2022-11-12T01:48:23;9.55;;;7.95;;
39426;SDS011;25938;48.470;1.486;2022-11-12T01:50:51;13.23;;;8.70;;
39426;SDS011;25938;48.470;1.486;2022-11-12T01:53:17;8.00;;;7.18;;
39426;SDS011;25938;48.470;1.486;2022-11-12T01:55:44;11.50;;;8.65;;
39426;SDS011;25938;48.470;1.486;2022-11-12T01:58:11;11.35;;;7.75;;
39426;SDS011;25938;48.470;1.486;2022-11-12T02:00:38;10.95;;;7.72;;
39426;SDS011;25938;48.470;1.486;2022-11-12T02:03:06;8.75;;;6.45;;
39426;SDS011;25938;48.470;1.486;2022-11-12T02:05:35;9.52;;;7.28;;
39426;SDS011;25938;48.470;1.486;2022-11-12T02:08:02;9.10;;;6.07;;
39426;SDS011;25938;48.470;1.486;2022-11-12T02:10:29;7.70;;;6.03;;
39426;SDS011;25938;48.470;1.486;2022-11-12T02:12:55;11.48;;;6.53;;
39426;SDS011;25938;48.470;1.486;2022-11-12T02:15:41;8.48;;;6.70;;
39426;SDS011;25938;48.470;1.486;2022-11-12T02:18:07;8.90;;;6.88;;
39426;SDS011;25938;48.470;1.486;2022-11-12T02:20:34;10.85;;;6.55;;
39426;SDS011;25938;48.470;1.486;2022-11-12T02:23:00;8.90;;;6.10;;
39426;SDS011;25938;48.470;1.486;2022-11-12T02:25:27;7.03;;;5.60;;
39426;SDS011;25938;48.470;1.486;2022-11-12T02:27:53;9.55;;;6.65;;
39426;SDS011;25938;48.470;1.486;2022-11-12T02:30:31;9.00;;;6.00;;
39426;SDS011;25938;48.470;1.486;2022-11-12T02:32:57;8.27;;;5.90;;
39426;SDS011;25938;48.470;1.486;2022-11-12T02:35:23;8.38;;;6.25;;
39426;SDS011;25938;48.470;1.486;2022-11-12T02:37:49;8.23;;;7.10;;
39426;SDS011;25938;48.470;1.486;2022-11-12T02:40:15;8.27;;;6.32;;
39426;SDS011;25938;48.470;1.486;2022-11-12T02:42:42;9.80;;;7.53;;
39426;SDS011;25938;48.470;1.486;2022-11-12T02:45:08;8.70;;;7.05;;
39426;SDS011;25938;48.470;1.486;2022-11-12T02:47:34;8.63;;;6.97;;
39426;SDS011;25938;48.470;1.486;2022-11-12T02:50:01;7.60;;;6.18;;
39426;SDS011;25938;48.470;1.486;2022-11-12T02:52:27;8.95;;;6.82;;
39426;SDS011;25938;48.470;1.486;2022-11-12T02:54:53;8.13;;;6.15;;
39426;SDS011;25938;48.470;1.486;2022-11-12T02:57:19;8.18;;;6.43;;
39426;SDS011;25938;48.470;1.486;2022-11-12T02:59:45;10.57;;;6.40;;
39426;SDS011;25938;48.470;1.486;2022-11-12T03:02:11;8.68;;;6.35;;
39426;SDS011;25938;48.470;1.486;2022-11-12T03:04:37;6.80;;;5.93;;
39426;SDS011;25938;48.470;1.486;2022-11-12T03:07:03;7.28;;;6.22;;
39426;SDS011;25938;48.470;1.486;2022-11-12T03:09:29;10.15;;;7.43;;
39426;SDS011;25938;48.470;1.486;2022-11-12T03:11:55;8.73;;;6.80;;
39426;SDS011;25938;48.470;1.486;2022-11-12T03:14:21;10.73;;;6.70;;
39426;SDS011;25938;48.470;1.486;2022-11-12T03:16:47;10.13;;;7.45;;
39426;SDS011;25938;48.470;1.486;2022-11-12T03:19:13;10.88;;;7.50;;
39426;SDS011;25938;48.470;1.486;2022-11-12T03:21:39;11.18;;;8.13;;
39426;SDS011;25938;48.470;1.486;2022-11-12T03:24:05;8.00;;;5.88;;
39426;SDS011;25938;48.470;1.486;2022-11-12T03:26:31;10.52;;;7.75;;
39426;SDS011;25938;48.470;1.486;2022-11-12T03:28:57;9.65;;;7.20;;
39426;SDS011;25938;48.470;1.486;2022-11-12T03:31:24;7.95;;;6.75;;
39426;SDS011;25938;48.470;1.486;2022-11-12T03:33:51;9.10;;;7.10;;
39426;SDS011;25938;48.470;1.486;2022-11-12T03:36:17;11.23;;;6.95;;
39426;SDS011;25938;48.470;1.486;2022-11-12T03:38:43;9.55;;;7.05;;
39426;SDS011;25938;48.470;1.486;2022-11-12T03:41:09;8.27;;;6.22;;
39426;SDS011;25938;48.470;1.486;2022-11-12T03:43:35;8.57;;;7.00;;
39426;SDS011;25938;48.470;1.486;2022-11-12T03:46:01;11.00;;;7.25;;
39426;SDS011;25938;48.470;1.486;2022-11-12T03:48:27;10.68;;;7.45;;
39426;SDS011;25938;48.470;1.486;2022-11-12T03:50:56;10.80;;;7.20;;
39426;SDS011;25938;48.470;1.486;2022-11-12T03:53:22;11.98;;;7.50;;
39426;SDS011;25938;48.470;1.486;2022-11-12T03:55:48;11.35;;;7.18;;
39426;SDS011;25938;48.470;1.486;2022-11-12T03:58:15;9.80;;;7.95;;
39426;SDS011;25938;48.470;1.486;2022-11-12T04:00:41;10.90;;;7.22;;
39426;SDS011;25938;48.470;1.486;2022-11-12T04:03:07;14.13;;;9.27;;
39426;SDS011;25938;48.470;1.486;2022-11-12T04:05:33;10.77;;;8.30;;
39426;SDS011;25938;48.470;1.486;2022-11-12T04:08:18;13.55;;;8.00;;
39426;SDS011;25938;48.470;1.486;2022-11-12T04:11:07;11.17;;;8.40;;
39426;SDS011;25938;48.470;1.486;2022-11-12T04:13:34;10.82;;;7.07;;
39426;SDS011;25938;48.470;1.486;2022-11-12T04:18:50;10.23;;;7.07;;
39426;SDS011;25938;48.470;1.486;2022-11-12T04:27:08;8.95;;;6.78;;
39426;SDS011;25938;48.470;1.486;2022-11-12T04:29:35;11.93;;;7.47;;
39426;SDS011;25938;48.470;1.486;2022-11-12T04:32:20;9.50;;;6.38;;
39426;SDS011;25938;48.470;1.486;2022-11-12T04:34:46;8.20;;;5.50;;
39426;SDS011;25938;48.470;1.486;2022-11-12T04:37:12;8.88;;;6.82;;
39426;SDS011;25938;48.470;1.486;2022-11-12T04:39:39;7.90;;;6.45;;
39426;SDS011;25938;48.470;1.486;2022-11-12T04:42:06;8.38;;;5.60;;
39426;SDS011;25938;48.470;1.486;2022-11-12T04:44:51;8.57;;;6.55;;
39426;SDS011;25938;48.470;1.486;2022-11-12T04:47:24;10.80;;;7.65;;
39426;SDS011;25938;48.470;1.486;2022-11-12T04:49:50;7.57;;;6.07;;
39426;SDS011;25938;48.470;1.486;2022-11-12T04:52:16;9.88;;;5.82;;
39426;SDS011;25938;48.470;1.486;2022-11-12T04:54:42;9.10;;;5.90;;
39426;SDS011;25938;48.470;1.486;2022-11-12T04:57:08;7.93;;;6.25;;
39426;SDS011;25938;48.470;1.486;2022-11-12T04:59:34;7.65;;;5.82;;
39426;SDS011;25938;48.470;1.486;2022-11-12T05:02:00;7.00;;;5.70;;
39426;SDS011;25938;48.470;1.486;2022-11-12T05:04:26;6.82;;;6.15;;
39426;SDS011;25938;48.470;1.486;2022-11-12T05:06:56;7.95;;;5.80;;
39426;SDS011;25938;48.470;1.486;2022-11-12T05:09:23;7.57;;;5.55;;
39426;SDS011;25938;48.470;1.486;2022-11-12T05:11:49;8.75;;;5.78;;
39426;SDS011;25938;48.470;1.486;2022-11-12T05:14:16;7.47;;;5.78;;
39426;SDS011;25938;48.470;1.486;2022-11-12T05:16:42;7.78;;;4.55;;
39426;SDS011;25938;48.470;1.486;2022-11-12T05:19:08;7.63;;;6.10;;
39426;SDS011;25938;48.470;1.486;2022-11-12T05:21:34;7.35;;;5.55;;
39426;SDS011;25938;48.470;1.486;2022-11-12T05:24:19;7.63;;;5.72;;
39426;SDS011;25938;48.470;1.486;2022-11-12T05:26:45;6.05;;;5.10;;
39426;SDS011;25938;48.470;1.486;2022-11-12T05:29:11;8.60;;;5.97;;
39426;SDS011;25938;48.470;1.486;2022-11-12T05:31:37;7.07;;;5.38;;
39426;SDS011;25938;48.470;1.486;2022-11-12T05:34:03;6.75;;;6.13;;
39426;SDS011;25938;48.470;1.486;2022-11-12T05:36:29;8.38;;;6.10;;
39426;SDS011;25938;48.470;1.486;2022-11-12T05:38:55;6.32;;;5.03;;
39426;SDS011;25938;48.470;1.486;2022-11-12T05:41:21;6.82;;;6.10;;
39426;SDS011;25938;48.470;1.486;2022-11-12T05:43:47;6.10;;;4.88;;
39426;SDS011;25938;48.470;1.486;2022-11-12T05:46:13;5.45;;;4.90;;
39426;SDS011;25938;48.470;1.486;2022-11-12T05:48:40;8.65;;;4.95;;
39426;SDS011;25938;48.470;1.486;2022-11-12T05:51:06;5.25;;;4.30;;
39426;SDS011;25938;48.470;1.486;2022-11-12T05:53:32;5.38;;;4.88;;
39426;SDS011;25938;48.470;1.486;2022-11-12T05:56:01;6.93;;;4.95;;
39426;SDS011;25938;48.470;1.486;2022-11-12T05:58:27;6.00;;;4.43;;
39426;SDS011;25938;48.470;1.486;2022-11-12T06:00:55;5.80;;;4.53;;
39426;SDS011;25938;48.470;1.486;2022-11-12T06:03:21;7.05;;;4.25;;
39426;SDS011;25938;48.470;1.486;2022-11-12T06:05:47;5.13;;;3.55;;
39426;SDS011;25938;48.470;1.486;2022-11-12T06:08:13;4.13;;;3.72;;
39426;SDS011;25938;48.470;1.486;2022-11-12T06:10:39;3.22;;;2.92;;
39426;SDS011;25938;48.470;1.486;2022-11-12T06:13:05;4.30;;;3.45;;
39426;SDS011;25938;48.470;1.486;2022-11-12T06:15:31;4.20;;;3.60;;
39426;SDS011;25938;48.470;1.486;2022-11-12T06:17:58;3.55;;;3.25;;
39426;SDS011;25938;48.470;1.486;2022-11-12T06:20:24;4.38;;;3.72;;
39426;SDS011;25938;48.470;1.486;2022-11-12T06:22:50;3.10;;;2.67;;
39426;SDS011;25938;48.470;1.486;2022-11-12T06:25:16;3.20;;;2.95;;
39426;SDS011;25938;48.470;1.486;2022-11-12T06:27:42;3.60;;;3.30;;
39426;SDS011;25938;48.470;1.486;2022-11-12T06:30:08;3.72;;;3.25;;
39426;SDS011;25938;48.470;1.486;2022-11-12T06:32:34;3.88;;;3.22;;
39426;SDS011;25938;48.470;1.486;2022-11-12T06:35:00;3.30;;;3.00;;
39426;SDS011;25938;48.470;1.486;2022-11-12T06:37:26;7.57;;;6.88;;
39426;SDS011;25938;48.470;1.486;2022-11-12T06:39:52;3.65;;;3.35;;
39426;SDS011;25938;48.470;1.486;2022-11-12T06:42:18;4.80;;;4.40;;
39426;SDS011;25938;48.470;1.486;2022-11-12T06:44:44;5.07;;;3.20;;
39426;SDS011;25938;48.470;1.486;2022-11-12T06:47:10;3.50;;;3.17;;
39426;SDS011;25938;48.470;1.486;2022-11-12T06:49:37;5.00;;;3.00;;
39426;SDS011;25938;48.470;1.486;2022-11-12T06:52:03;3.22;;;2.90;;
39426;SDS011;25938;48.470;1.486;2022-11-12T06:54:29;3.33;;;2.92;;
39426;SDS011;25938;48.470;1.486;2022-11-12T06:56:55;4.10;;;3.00;;
39426;SDS011;25938;48.470;1.486;2022-11-12T06:59:21;4.13;;;3.67;;
39426;SDS011;25938;48.470;1.486;2022-11-12T07:01:47;3.05;;;2.75;;
39426;SDS011;25938;48.470;1.486;2022-11-12T07:04:13;3.03;;;2.80;;
39426;SDS011;25938;48.470;1.486;2022-11-12T07:06:39;3.15;;;2.88;;
39426;SDS011;25938;48.470;1.486;2022-11-12T07:09:05;2.92;;;2.63;;
39426;SDS011;25938;48.470;1.486;2022-11-12T07:11:32;4.32;;;3.67;;
39426;SDS011;25938;48.470;1.486;2022-11-12T07:13:58;3.55;;;3.17;;
39426;SDS011;25938;48.470;1.486;2022-11-12T07:16:24;4.45;;;4.05;;
39426;SDS011;25938;48.470;1.486;2022-11-12T07:18:50;3.33;;;2.90;;
39426;SDS011;25938;48.470;1.486;2022-11-12T07:21:17;3.22;;;2.95;;
39426;SDS011;25938;48.470;1.486;2022-11-12T07:23:44;3.55;;;2.97;;
39426;SDS011;25938;48.470;1.486;2022-11-12T07:26:23;3.67;;;3.38;;
39426;SDS011;25938;48.470;1.486;2022-11-12T07:28:51;3.92;;;3.10;;
39426;SDS011;25938;48.470;1.486;2022-11-12T07:31:18;3.83;;;3.40;;
39426;SDS011;25938;48.470;1.486;2022-11-12T07:33:44;4.00;;;3.53;;
39426;SDS011;25938;48.470;1.486;2022-11-12T07:36:13;5.50;;;3.97;;
39426;SDS011;25938;48.470;1.486;2022-11-12T07:38:40;6.40;;;3.20;;
39426;SDS011;25938;48.470;1.486;2022-11-12T07:41:16;6.47;;;2.92;;
39426;SDS011;25938;48.470;1.486;2022-11-12T07:43:43;3.47;;;2.78;;
39426;SDS011;25938;48.470;1.486;2022-11-12T07:46:14;4.07;;;3.00;;
39426;SDS011;25938;48.470;1.486;2022-11-12T07:48:40;4.38;;;3.65;;
39426;SDS011;25938;48.470;1.486;2022-11-12T07:51:10;4.65;;;3.28;;
39426;SDS011;25938;48.470;1.486;2022-11-12T07:53:38;3.85;;;3.47;;
39426;SDS011;25938;48.470;1.486;2022-11-12T07:56:04;3.60;;;2.88;;
39426;SDS011;25938;48.470;1.486;2022-11-12T07:58:31;6.88;;;3.47;;
39426;SDS011;25938;48.470;1.486;2022-11-12T08:00:57;7.32;;;4.15;;
39426;SDS011;25938;48.470;1.486;2022-11-12T08:03:31;4.53;;;4.13;;
39426;SDS011;25938;48.470;1.486;2022-11-12T08:05:58;4.07;;;3.67;;
39426;SDS011;25938;48.470;1.486;2022-11-12T08:08:24;4.90;;;3.55;;
39426;SDS011;25938;48.470;1.486;2022-11-12T08:10:57;3.67;;;3.35;;
39426;SDS011;25938;48.470;1.486;2022-11-12T08:13:23;3.63;;;3.05;;
39426;SDS011;25938;48.470;1.486;2022-11-12T08:15:49;3.50;;;3.20;;
39426;SDS011;25938;48.470;1.486;2022-11-12T08:18:16;5.25;;;4.20;;
39426;SDS011;25938;48.470;1.486;2022-11-12T08:20:42;4.18;;;3.40;;
39426;SDS011;25938;48.470;1.486;2022-11-12T08:23:08;4.40;;;3.47;;
39426;SDS011;25938;48.470;1.486;2022-11-12T08:25:35;3.55;;;2.97;;
39426;SDS011;25938;48.470;1.486;2022-11-12T08:28:01;4.63;;;3.42;;
39426;SDS011;25938;48.470;1.486;2022-11-12T08:30:28;5.88;;;4.18;;
39426;SDS011;25938;48.470;1.486;2022-11-12T08:32:57;5.43;;;3.95;;
39426;SDS011;25938;48.470;1.486;2022-11-12T08:35:24;6.47;;;5.47;;
39426;SDS011;25938;48.470;1.486;2022-11-12T08:37:51;5.47;;;3.58;;
39426;SDS011;25938;48.470;1.486;2022-11-12T08:40:17;8.68;;;5.10;;
39426;SDS011;25938;48.470;1.486;2022-11-12T08:42:43;7.78;;;5.10;;
39426;SDS011;25938;48.470;1.486;2022-11-12T08:45:09;8.65;;;6.30;;
39426;SDS011;25938;48.470;1.486;2022-11-12T08:47:35;11.45;;;6.45;;
39426;SDS011;25938;48.470;1.486;2022-11-12T08:50:01;10.23;;;5.95;;
39426;SDS011;25938;48.470;1.486;2022-11-12T08:52:27;7.72;;;5.53;;
39426;SDS011;25938;48.470;1.486;2022-11-12T08:54:53;10.98;;;6.82;;
39426;SDS011;25938;48.470;1.486;2022-11-12T08:57:19;8.85;;;5.65;;
39426;SDS011;25938;48.470;1.486;2022-11-12T08:59:45;11.15;;;7.07;;
39426;SDS011;25938;48.470;1.486;2022-11-12T09:02:12;11.75;;;6.50;;
39426;SDS011;25938;48.470;1.486;2022-11-12T09:04:38;10.40;;;6.68;;
39426;SDS011;25938;48.470;1.486;2022-11-12T09:07:04;11.63;;;8.30;;
39426;SDS011;25938;48.470;1.486;2022-11-12T09:09:30;13.60;;;7.80;;
39426;SDS011;25938;48.470;1.486;2022-11-12T09:11:56;10.70;;;7.50;;
39426;SDS011;25938;48.470;1.486;2022-11-12T09:14:22;13.50;;;8.40;;
39426;SDS011;25938;48.470;1.486;2022-11-12T09:16:48;15.07;;;8.52;;
39426;SDS011;25938;48.470;1.486;2022-11-12T09:19:14;15.57;;;8.95;;
39426;SDS011;25938;48.470;1.486;2022-11-12T09:21:40;12.88;;;8.57;;
39426;SDS011;25938;48.470;1.486;2022-11-12T09:24:06;15.20;;;8.18;;
39426;SDS011;25938;48.470;1.486;2022-11-12T09:26:32;12.75;;;8.70;;
39426;SDS011;25938;48.470;1.486;2022-11-12T09:28:58;15.35;;;10.32;;
39426;SDS011;25938;48.470;1.486;2022-11-12T09:31:24;11.07;;;7.38;;
39426;SDS011;25938;48.470;1.486;2022-11-12T09:33:50;14.15;;;8.85;;
39426;SDS011;25938;48.470;1.486;2022-11-12T09:36:16;15.02;;;8.30;;
39426;SDS011;25938;48.470;1.486;2022-11-12T09:38:42;12.38;;;8.23;;
39426;SDS011;25938;48.470;1.486;2022-11-12T09:41:12;11.20;;;7.85;;
39426;SDS011;25938;48.470;1.486;2022-11-12T09:43:42;11.85;;;8.57;;
39426;SDS011;25938;48.470;1.486;2022-11-12T09:48:45;12.88;;;9.32;;
39426;SDS011;25938;48.470;1.486;2022-11-12T09:51:15;14.40;;;9.20;;
39426;SDS011;25938;48.470;1.486;2022-11-12T09:56:11;16.55;;;10.38;;
39426;SDS011;25938;48.470;1.486;2022-11-12T09:58:38;15.80;;;9.43;;
39426;SDS011;25938;48.470;1.486;2022-11-12T10:01:15;14.40;;;10.10;;
39426;SDS011;25938;48.470;1.486;2022-11-12T10:06:58;16.42;;;11.05;;
39426;SDS011;25938;48.470;1.486;2022-11-12T10:09:30;14.50;;;9.88;;
39426;SDS011;25938;48.470;1.486;2022-11-12T10:12:04;13.52;;;9.45;;
39426;SDS011;25938;48.470;1.486;2022-11-12T10:15:02;14.13;;;9.55;;
39426;SDS011;25938;48.470;1.486;2022-11-12T10:17:50;13.20;;;9.38;;
39426;SDS011;25938;48.470;1.486;2022-11-12T10:20:26;13.68;;;9.40;;
39426;SDS011;25938;48.470;1.486;2022-11-12T10:25:37;13.48;;;8.63;;
39426;SDS011;25938;48.470;1.486;2022-11-12T10:28:07;13.60;;;9.35;;
39426;SDS011;25938;48.470;1.486;2022-11-12T10:33:03;12.27;;;8.30;;
39426;SDS011;25938;48.470;1.486;2022-11-12T10:35:29;15.55;;;10.55;;
39426;SDS011;25938;48.470;1.486;2022-11-12T10:38:02;12.88;;;9.05;;
39426;SDS011;25938;48.470;1.486;2022-11-12T10:40:31;13.20;;;8.27;;
39426;SDS011;25938;48.470;1.486;2022-11-12T10:43:02;9.32;;;7.55;;
39426;SDS011;25938;48.470;1.486;2022-11-12T10:45:29;12.73;;;8.13;;
39426;SDS011;25938;48.470;1.486;2022-11-12T10:47:55;10.63;;;7.70;;
39426;SDS011;25938;48.470;1.486;2022-11-12T10:55:22;10.70;;;7.03;;
39426;SDS011;25938;48.470;1.486;2022-11-12T11:00:33;11.10;;;7.50;;
39426;SDS011;25938;48.470;1.486;2022-11-12T11:03:00;7.65;;;6.88;;
39426;SDS011;25938;48.470;1.486;2022-11-12T11:05:31;10.18;;;8.20;;
39426;SDS011;25938;48.470;1.486;2022-11-12T11:07:59;10.40;;;6.78;;
39426;SDS011;25938;48.470;1.486;2022-11-12T11:10:29;10.23;;;6.97;;
39426;SDS011;25938;48.470;1.486;2022-11-12T11:15:41;7.97;;;5.97;;
39426;SDS011;25938;48.470;1.486;2022-11-12T11:18:21;9.93;;;8.10;;
39426;SDS011;25938;48.470;1.486;2022-11-12T11:20:50;8.60;;;6.78;;
39426;SDS011;25938;48.470;1.486;2022-11-12T11:23:27;9.00;;;7.13;;
39426;SDS011;25938;48.470;1.486;2022-11-12T11:25:56;10.23;;;7.05;;
39426;SDS011;25938;48.470;1.486;2022-11-12T11:28:41;9.23;;;7.80;;
39426;SDS011;25938;48.470;1.486;2022-11-12T11:38:46;6.63;;;5.60;;
39426;SDS011;25938;48.470;1.486;2022-11-12T11:41:19;7.60;;;5.70;;
39426;SDS011;25938;48.470;1.486;2022-11-12T11:46:26;6.90;;;6.20;;
39426;SDS011;25938;48.470;1.486;2022-11-12T11:51:52;23.27;;;12.40;;
39426;SDS011;25938;48.470;1.486;2022-11-12T11:57:03;7.50;;;5.63;;
39426;SDS011;25938;48.470;1.486;2022-11-12T12:04:47;7.35;;;4.78;;
39426;SDS011;25938;48.470;1.486;2022-11-12T12:07:21;7.57;;;5.28;;
39426;SDS011;25938;48.470;1.486;2022-11-12T12:09:59;5.90;;;5.25;;
39426;SDS011;25938;48.470;1.486;2022-11-12T12:20:23;5.38;;;4.18;;
39426;SDS011;25938;48.470;1.486;2022-11-12T12:26:00;7.03;;;5.30;;
39426;SDS011;25938;48.470;1.486;2022-11-12T12:28:44;5.43;;;4.60;;
39426;SDS011;25938;48.470;1.486;2022-11-12T12:31:16;5.75;;;4.85;;
39426;SDS011;25938;48.470;1.486;2022-11-12T12:36:16;6.15;;;5.47;;
39426;SDS011;25938;48.470;1.486;2022-11-12T12:41:23;8.07;;;5.47;;
39426;SDS011;25938;48.470;1.486;2022-11-12T12:43:53;5.75;;;4.95;;
39426;SDS011;25938;48.470;1.486;2022-11-12T12:46:21;5.15;;;4.40;;
39426;SDS011;25938;48.470;1.486;2022-11-12T12:48:48;6.82;;;5.25;;
39426;SDS011;25938;48.470;1.486;2022-11-12T12:51:16;5.68;;;4.65;;
39426;SDS011;25938;48.470;1.486;2022-11-12T12:53:42;4.85;;;4.32;;
39426;SDS011;25938;48.470;1.486;2022-11-12T13:03:47;6.15;;;5.10;;
39426;SDS011;25938;48.470;1.486;2022-11-12T13:06:22;4.72;;;4.30;;
39426;SDS011;25938;48.470;1.486;2022-11-12T13:19:25;4.88;;;4.25;;
39426;SDS011;25938;48.470;1.486;2022-11-12T13:22:24;3.55;;;3.25;;
39426;SDS011;25938;48.470;1.486;2022-11-12T13:40:15;4.43;;;3.30;;
39426;SDS011;25938;48.470;1.486;2022-11-12T13:42:42;4.47;;;3.85;;
39426;SDS011;25938;48.470;1.486;2022-11-12T13:45:17;5.20;;;3.92;;
39426;SDS011;25938;48.470;1.486;2022-11-12T13:47:44;4.28;;;3.88;;
39426;SDS011;25938;48.470;1.486;2022-11-12T13:50:17;4.13;;;3.38;;
39426;SDS011;25938;48.470;1.486;2022-11-12T13:52:44;6.60;;;5.68;;
39426;SDS011;25938;48.470;1.486;2022-11-12T13:55:15;5.60;;;3.35;;
39426;SDS011;25938;48.470;1.486;2022-11-12T13:57:46;3.50;;;2.90;;
39426;SDS011;25938;48.470;1.486;2022-11-12T14:02:52;6.97;;;4.57;;
39426;SDS011;25938;48.470;1.486;2022-11-12T14:05:20;4.70;;;4.13;;
39426;SDS011;25938;48.470;1.486;2022-11-12T14:13:01;4.03;;;3.00;;
39426;SDS011;25938;48.470;1.486;2022-11-12T14:18:18;6.40;;;4.32;;
39426;SDS011;25938;48.470;1.486;2022-11-12T14:20:47;4.28;;;3.75;;
39426;SDS011;25938;48.470;1.486;2022-11-12T14:23:14;7.13;;;4.93;;
39426;SDS011;25938;48.470;1.486;2022-11-12T14:25:51;5.13;;;4.20;;
39426;SDS011;25938;48.470;1.486;2022-11-12T14:28:30;7.63;;;4.70;;
39426;SDS011;25938;48.470;1.486;2022-11-12T14:30:57;4.93;;;3.10;;
39426;SDS011;25938;48.470;1.486;2022-11-12T14:33:25;7.32;;;5.75;;
39426;SDS011;25938;48.470;1.486;2022-11-12T14:35:52;5.72;;;5.13;;
39426;SDS011;25938;48.470;1.486;2022-11-12T14:38:29;4.43;;;3.63;;
39426;SDS011;25938;48.470;1.486;2022-11-12T14:40:57;5.15;;;4.05;;
39426;SDS011;25938;48.470;1.486;2022-11-12T14:43:25;7.18;;;5.03;;
39426;SDS011;25938;48.470;1.486;2022-11-12T14:45:53;4.55;;;3.08;;
39426;SDS011;25938;48.470;1.486;2022-11-12T14:48:19;4.75;;;4.30;;
39426;SDS011;25938;48.470;1.486;2022-11-12T14:50:46;4.43;;;3.58;;
39426;SDS011;25938;48.470;1.486;2022-11-12T14:53:14;6.00;;;4.30;;
39426;SDS011;25938;48.470;1.486;2022-11-12T14:55:41;4.65;;;4.25;;
39426;SDS011;25938;48.470;1.486;2022-11-12T14:58:15;6.55;;;4.10;;
39426;SDS011;25938;48.470;1.486;2022-11-12T15:00:45;7.43;;;5.03;;
39426;SDS011;25938;48.470;1.486;2022-11-12T15:03:33;4.30;;;3.83;;
39426;SDS011;25938;48.470;1.486;2022-11-12T15:08:35;4.07;;;3.33;;
39426;SDS011;25938;48.470;1.486;2022-11-12T15:11:19;5.35;;;3.97;;
39426;SDS011;25938;48.470;1.486;2022-11-12T15:13:46;4.05;;;3.55;;
39426;SDS011;25938;48.470;1.486;2022-11-12T15:16:32;5.13;;;4.40;;
39426;SDS011;25938;48.470;1.486;2022-11-12T15:21:25;3.85;;;3.50;;
39426;SDS011;25938;48.470;1.486;2022-11-12T15:23:58;6.47;;;4.45;;
39426;SDS011;25938;48.470;1.486;2022-11-12T15:26:34;7.78;;;4.60;;
39426;SDS011;25938;48.470;1.486;2022-11-12T15:29:02;5.43;;;4.13;;
39426;SDS011;25938;48.470;1.486;2022-11-12T15:31:53;6.20;;;3.33;;
39426;SDS011;25938;48.470;1.486;2022-11-12T15:36:48;4.60;;;3.33;;
39426;SDS011;25938;48.470;1.486;2022-11-12T15:39:15;3.70;;;3.30;;
39426;SDS011;25938;48.470;1.486;2022-11-12T15:41:41;3.25;;;2.95;;
39426;SDS011;25938;48.470;1.486;2022-11-12T15:44:08;3.17;;;2.88;;
39426;SDS011;25938;48.470;1.486;2022-11-12T15:46:35;6.43;;;3.60;;
39426;SDS011;25938;48.470;1.486;2022-11-12T15:49:01;3.53;;;3.22;;
39426;SDS011;25938;48.470;1.486;2022-11-12T15:51:27;3.88;;;3.05;;
39426;SDS011;25938;48.470;1.486;2022-11-12T15:53:53;4.47;;;3.35;;
39426;SDS011;25938;48.470;1.486;2022-11-12T15:56:19;6.05;;;4.90;;
39426;SDS011;25938;48.470;1.486;2022-11-12T15:58:46;7.68;;;4.45;;
39426;SDS011;25938;48.470;1.486;2022-11-12T16:01:12;7.05;;;4.32;;
39426;SDS011;25938;48.470;1.486;2022-11-12T16:03:38;5.35;;;4.10;;
39426;SDS011;25938;48.470;1.486;2022-11-12T16:06:04;5.57;;;4.07;;
39426;SDS011;25938;48.470;1.486;2022-11-12T16:08:30;4.82;;;3.80;;
39426;SDS011;25938;48.470;1.486;2022-11-12T16:10:56;4.05;;;3.63;;
39426;SDS011;25938;48.470;1.486;2022-11-12T16:13:25;5.15;;;4.18;;
39426;SDS011;25938;48.470;1.486;2022-11-12T16:15:51;4.60;;;3.88;;
39426;SDS011;25938;48.470;1.486;2022-11-12T16:18:17;6.80;;;4.00;;
39426;SDS011;25938;48.470;1.486;2022-11-12T16:20:44;4.20;;;3.80;;
39426;SDS011;25938;48.470;1.486;2022-11-12T16:23:11;5.05;;;3.45;;
39426;SDS011;25938;48.470;1.486;2022-11-12T16:25:37;4.30;;;3.90;;
39426;SDS011;25938;48.470;1.486;2022-11-12T16:28:08;5.05;;;4.32;;
39426;SDS011;25938;48.470;1.486;2022-11-12T16:30:36;5.10;;;4.35;;
39426;SDS011;25938;48.470;1.486;2022-11-12T16:33:02;7.03;;;4.57;;
39426;SDS011;25938;48.470;1.486;2022-11-12T16:35:30;5.78;;;4.75;;
39426;SDS011;25938;48.470;1.486;2022-11-12T16:37:57;5.88;;;4.13;;
39426;SDS011;25938;48.470;1.486;2022-11-12T16:40:24;5.30;;;4.80;;
39426;SDS011;25938;48.470;1.486;2022-11-12T16:42:51;5.90;;;4.20;;
39426;SDS011;25938;48.470;1.486;2022-11-12T16:45:18;6.68;;;4.72;;
39426;SDS011;25938;48.470;1.486;2022-11-12T16:47:45;6.10;;;4.18;;
39426;SDS011;25938;48.470;1.486;2022-11-12T16:50:12;6.43;;;4.00;;